sensor_id;sensor_type;location;lat;lon;timestamp;P1;durP1;ratioP1;P2;durP2;ratioP2
42246;SDS011;27913;42.722;23.268;2023-03-01T00:01:44;3.05;;;1.17;;
42246;SDS011;27913;42.722;23.268;2023-03-01T00:04:10;4.60;;;1.70;;
42246;SDS011;27913;42.722;23.268;2023-03-01T00:06:35;4.00;;;1.48;;
42246;SDS011;27913;42.722;23.268;2023-03-01T00:09:02;4.78;;;1.83;;
42246;SDS011;27913;42.722;23.268;2023-03-01T00:11:29;4.72;;;1.80;;
42246;SDS011;27913;42.722;23.268;2023-03-01T00:13:57;5.30;;;2.05;;
42246;SDS011;27913;42.722;23.268;2023-03-01T00:16:24;4.57;;;1.65;;
42246;SDS011;27913;42.722;23.268;2023-03-01T00:18:53;4.75;;;1.67;;
42246;SDS011;27913;42.722;23.268;2023-03-01T00:21:19;3.88;;;1.58;;
42246;SDS011;27913;42.722;23.268;2023-03-01T00:23:46;4.93;;;1.60;;
42246;SDS011;27913;42.722;23.268;2023-03-01T00:26:14;5.35;;;1.80;;
42246;SDS011;27913;42.722;23.268;2023-03-01T00:28:40;6.20;;;1.77;;
42246;SDS011;27913;42.722;23.268;2023-03-01T00:31:08;3.60;;;1.33;;
42246;SDS011;27913;42.722;23.268;2023-03-01T00:33:35;2.05;;;1.08;;
42246;SDS011;27913;42.722;23.268;2023-03-01T00:36:01;2.53;;;1.10;;
42246;SDS011;27913;42.722;23.268;2023-03-01T00:38:27;4.25;;;1.42;;
42246;SDS011;27913;42.722;23.268;2023-03-01T00:40:53;2.97;;;1.10;;
42246;SDS011;27913;42.722;23.268;2023-03-01T00:43:18;5.55;;;1.77;;
42246;SDS011;27913;42.722;23.268;2023-03-01T00:45:44;3.00;;;1.23;;
42246;SDS011;27913;42.722;23.268;2023-03-01T00:48:10;6.35;;;2.00;;
42246;SDS011;27913;42.722;23.268;2023-03-01T00:50:35;4.18;;;1.23;;
42246;SDS011;27913;42.722;23.268;2023-03-01T00:53:01;3.80;;;1.10;;
42246;SDS011;27913;42.722;23.268;2023-03-01T00:55:27;3.20;;;1.30;;
42246;SDS011;27913;42.722;23.268;2023-03-01T00:57:52;2.88;;;1.20;;
42246;SDS011;27913;42.722;23.268;2023-03-01T01:00:18;4.55;;;1.40;;
42246;SDS011;27913;42.722;23.268;2023-03-01T01:05:19;1.65;;;0.65;;
42246;SDS011;27913;42.722;23.268;2023-03-01T01:07:46;2.78;;;0.98;;
42246;SDS011;27913;42.722;23.268;2023-03-01T01:10:12;2.78;;;1.02;;
42246;SDS011;27913;42.722;23.268;2023-03-01T01:12:42;3.40;;;1.20;;
42246;SDS011;27913;42.722;23.268;2023-03-01T01:15:08;3.47;;;1.15;;
42246;SDS011;27913;42.722;23.268;2023-03-01T01:17:37;4.15;;;1.30;;
42246;SDS011;27913;42.722;23.268;2023-03-01T01:20:02;3.45;;;1.15;;
42246;SDS011;27913;42.722;23.268;2023-03-01T01:22:28;3.45;;;1.10;;
42246;SDS011;27913;42.722;23.268;2023-03-01T01:24:54;4.28;;;1.08;;
42246;SDS011;27913;42.722;23.268;2023-03-01T01:27:21;3.40;;;0.80;;
42246;SDS011;27913;42.722;23.268;2023-03-01T01:29:47;1.83;;;0.80;;
42246;SDS011;27913;42.722;23.268;2023-03-01T01:32:13;2.83;;;1.13;;
42246;SDS011;27913;42.722;23.268;2023-03-01T01:34:39;2.38;;;0.93;;
42246;SDS011;27913;42.722;23.268;2023-03-01T01:37:04;2.13;;;0.88;;
42246;SDS011;27913;42.722;23.268;2023-03-01T01:39:33;3.10;;;1.23;;
42246;SDS011;27913;42.722;23.268;2023-03-01T01:42:00;1.83;;;0.80;;
42246;SDS011;27913;42.722;23.268;2023-03-01T01:44:26;1.58;;;0.70;;
42246;SDS011;27913;42.722;23.268;2023-03-01T01:46:55;1.92;;;0.63;;
42246;SDS011;27913;42.722;23.268;2023-03-01T01:52:07;2.53;;;0.90;;
42246;SDS011;27913;42.722;23.268;2023-03-01T01:57:10;2.13;;;0.75;;
42246;SDS011;27913;42.722;23.268;2023-03-01T01:59:39;1.88;;;0.70;;
42246;SDS011;27913;42.722;23.268;2023-03-01T02:02:08;2.33;;;1.02;;
42246;SDS011;27913;42.722;23.268;2023-03-01T02:04:34;1.73;;;0.63;;
42246;SDS011;27913;42.722;23.268;2023-03-01T02:07:05;2.15;;;0.82;;
42246;SDS011;27913;42.722;23.268;2023-03-01T02:09:38;2.00;;;0.85;;
42246;SDS011;27913;42.722;23.268;2023-03-01T02:12:04;0.85;;;0.52;;
42246;SDS011;27913;42.722;23.268;2023-03-01T02:14:30;1.40;;;0.43;;
42246;SDS011;27913;42.722;23.268;2023-03-01T02:16:56;1.23;;;0.60;;
42246;SDS011;27913;42.722;23.268;2023-03-01T02:19:29;1.63;;;0.73;;
42246;SDS011;27913;42.722;23.268;2023-03-01T02:22:06;1.70;;;0.70;;
42246;SDS011;27913;42.722;23.268;2023-03-01T02:24:49;3.15;;;0.82;;
42246;SDS011;27913;42.722;23.268;2023-03-01T02:27:25;2.75;;;1.02;;
42246;SDS011;27913;42.722;23.268;2023-03-01T02:29:57;2.78;;;1.02;;
42246;SDS011;27913;42.722;23.268;2023-03-01T02:32:22;2.35;;;1.10;;
42246;SDS011;27913;42.722;23.268;2023-03-01T02:34:53;4.05;;;1.30;;
42246;SDS011;27913;42.722;23.268;2023-03-01T02:37:20;1.60;;;0.75;;
42246;SDS011;27913;42.722;23.268;2023-03-01T02:39:51;3.90;;;1.15;;
42246;SDS011;27913;42.722;23.268;2023-03-01T02:42:31;4.85;;;1.30;;
42246;SDS011;27913;42.722;23.268;2023-03-01T02:45:01;3.75;;;1.33;;
42246;SDS011;27913;42.722;23.268;2023-03-01T02:47:28;3.28;;;1.33;;
42246;SDS011;27913;42.722;23.268;2023-03-01T02:49:53;2.60;;;1.42;;
42246;SDS011;27913;42.722;23.268;2023-03-01T02:55:31;3.10;;;1.20;;
42246;SDS011;27913;42.722;23.268;2023-03-01T02:57:57;3.58;;;0.85;;
42246;SDS011;27913;42.722;23.268;2023-03-01T03:00:28;2.17;;;0.88;;
42246;SDS011;27913;42.722;23.268;2023-03-01T03:02:59;3.00;;;1.40;;
42246;SDS011;27913;42.722;23.268;2023-03-01T03:05:29;4.43;;;1.73;;
42246;SDS011;27913;42.722;23.268;2023-03-01T03:07:57;6.85;;;2.55;;
42246;SDS011;27913;42.722;23.268;2023-03-01T03:10:27;8.30;;;2.33;;
42246;SDS011;27913;42.722;23.268;2023-03-01T03:12:56;6.80;;;2.58;;
42246;SDS011;27913;42.722;23.268;2023-03-01T03:15:24;9.77;;;3.50;;
42246;SDS011;27913;42.722;23.268;2023-03-01T03:17:50;8.77;;;2.67;;
42246;SDS011;27913;42.722;23.268;2023-03-01T03:20:18;5.97;;;1.90;;
42246;SDS011;27913;42.722;23.268;2023-03-01T03:22:46;4.68;;;1.30;;
42246;SDS011;27913;42.722;23.268;2023-03-01T03:25:17;1.85;;;0.85;;
42246;SDS011;27913;42.722;23.268;2023-03-01T03:27:45;3.95;;;1.63;;
42246;SDS011;27913;42.722;23.268;2023-03-01T03:30:12;3.35;;;1.38;;
42246;SDS011;27913;42.722;23.268;2023-03-01T03:32:42;6.78;;;1.10;;
42246;SDS011;27913;42.722;23.268;2023-03-01T03:35:18;2.80;;;1.10;;
42246;SDS011;27913;42.722;23.268;2023-03-01T03:38:00;1.83;;;0.77;;
42246;SDS011;27913;42.722;23.268;2023-03-01T03:40:33;1.83;;;0.90;;
42246;SDS011;27913;42.722;23.268;2023-03-01T03:43:03;2.40;;;0.95;;
42246;SDS011;27913;42.722;23.268;2023-03-01T03:45:31;2.70;;;1.15;;
42246;SDS011;27913;42.722;23.268;2023-03-01T03:47:58;2.38;;;1.00;;
42246;SDS011;27913;42.722;23.268;2023-03-01T03:50:25;3.28;;;1.23;;
42246;SDS011;27913;42.722;23.268;2023-03-01T03:52:51;2.65;;;1.20;;
42246;SDS011;27913;42.722;23.268;2023-03-01T03:55:16;2.08;;;0.95;;
42246;SDS011;27913;42.722;23.268;2023-03-01T03:57:44;2.40;;;0.90;;
42246;SDS011;27913;42.722;23.268;2023-03-01T04:00:17;2.03;;;1.00;;
42246;SDS011;27913;42.722;23.268;2023-03-01T04:02:44;2.85;;;1.15;;
42246;SDS011;27913;42.722;23.268;2023-03-01T04:05:12;1.65;;;1.05;;
42246;SDS011;27913;42.722;23.268;2023-03-01T04:07:39;5.93;;;1.10;;
42246;SDS011;27913;42.722;23.268;2023-03-01T04:10:06;2.05;;;0.80;;
42246;SDS011;27913;42.722;23.268;2023-03-01T04:12:34;2.95;;;1.10;;
42246;SDS011;27913;42.722;23.268;2023-03-01T04:15:00;2.08;;;0.65;;
42246;SDS011;27913;42.722;23.268;2023-03-01T04:17:26;2.67;;;0.75;;
42246;SDS011;27913;42.722;23.268;2023-03-01T04:19:51;2.45;;;0.90;;
42246;SDS011;27913;42.722;23.268;2023-03-01T04:22:18;2.15;;;0.88;;
42246;SDS011;27913;42.722;23.268;2023-03-01T04:24:44;2.65;;;0.90;;
42246;SDS011;27913;42.722;23.268;2023-03-01T04:27:10;1.77;;;0.70;;
42246;SDS011;27913;42.722;23.268;2023-03-01T04:29:36;2.22;;;0.80;;
42246;SDS011;27913;42.722;23.268;2023-03-01T04:32:02;2.78;;;1.00;;
42246;SDS011;27913;42.722;23.268;2023-03-01T04:34:28;1.23;;;0.55;;
42246;SDS011;27913;42.722;23.268;2023-03-01T04:36:54;2.05;;;0.50;;
42246;SDS011;27913;42.722;23.268;2023-03-01T04:39:19;2.47;;;0.70;;
42246;SDS011;27913;42.722;23.268;2023-03-01T04:41:45;2.25;;;0.65;;
42246;SDS011;27913;42.722;23.268;2023-03-01T04:44:11;1.23;;;0.57;;
42246;SDS011;27913;42.722;23.268;2023-03-01T04:46:36;1.20;;;0.50;;
42246;SDS011;27913;42.722;23.268;2023-03-01T04:49:02;0.98;;;0.50;;
42246;SDS011;27913;42.722;23.268;2023-03-01T04:51:28;1.98;;;0.55;;
42246;SDS011;27913;42.722;23.268;2023-03-01T04:53:54;1.38;;;0.43;;
42246;SDS011;27913;42.722;23.268;2023-03-01T04:56:20;0.95;;;0.32;;
42246;SDS011;27913;42.722;23.268;2023-03-01T04:58:48;2.13;;;0.50;;
42246;SDS011;27913;42.722;23.268;2023-03-01T05:01:14;2.22;;;0.90;;
42246;SDS011;27913;42.722;23.268;2023-03-01T05:03:46;5.50;;;1.33;;
42246;SDS011;27913;42.722;23.268;2023-03-01T05:06:13;2.20;;;1.00;;
42246;SDS011;27913;42.722;23.268;2023-03-01T05:08:39;5.32;;;1.10;;
42246;SDS011;27913;42.722;23.268;2023-03-01T05:11:05;3.25;;;1.13;;
42246;SDS011;27913;42.722;23.268;2023-03-01T05:13:34;5.50;;;1.30;;
42246;SDS011;27913;42.722;23.268;2023-03-01T05:16:00;2.60;;;0.85;;
42246;SDS011;27913;42.722;23.268;2023-03-01T05:18:28;3.97;;;1.00;;
42246;SDS011;27913;42.722;23.268;2023-03-01T05:20:55;4.53;;;1.38;;
42246;SDS011;27913;42.722;23.268;2023-03-01T05:25:51;3.88;;;1.33;;
42246;SDS011;27913;42.722;23.268;2023-03-01T05:28:17;4.28;;;1.45;;
42246;SDS011;27913;42.722;23.268;2023-03-01T05:30:45;3.30;;;1.27;;
42246;SDS011;27913;42.722;23.268;2023-03-01T05:33:11;3.50;;;1.02;;
42246;SDS011;27913;42.722;23.268;2023-03-01T05:35:40;3.63;;;1.17;;
42246;SDS011;27913;42.722;23.268;2023-03-01T05:38:07;3.22;;;1.38;;
42246;SDS011;27913;42.722;23.268;2023-03-01T05:40:34;4.85;;;1.73;;
42246;SDS011;27913;42.722;23.268;2023-03-01T05:43:00;4.43;;;1.95;;
42246;SDS011;27913;42.722;23.268;2023-03-01T05:45:26;2.60;;;1.23;;
42246;SDS011;27913;42.722;23.268;2023-03-01T05:47:52;3.92;;;1.63;;
42246;SDS011;27913;42.722;23.268;2023-03-01T05:50:23;4.47;;;1.70;;
42246;SDS011;27913;42.722;23.268;2023-03-01T05:52:51;6.18;;;1.95;;
42246;SDS011;27913;42.722;23.268;2023-03-01T05:55:38;5.00;;;2.03;;
42246;SDS011;27913;42.722;23.268;2023-03-01T05:58:05;6.75;;;2.75;;
42246;SDS011;27913;42.722;23.268;2023-03-01T06:00:32;8.80;;;2.50;;
42246;SDS011;27913;42.722;23.268;2023-03-01T06:02:58;7.70;;;2.47;;
42246;SDS011;27913;42.722;23.268;2023-03-01T06:05:26;4.38;;;1.95;;
42246;SDS011;27913;42.722;23.268;2023-03-01T06:07:52;6.60;;;2.25;;
42246;SDS011;27913;42.722;23.268;2023-03-01T06:10:19;8.32;;;2.63;;
42246;SDS011;27913;42.722;23.268;2023-03-01T06:12:46;3.92;;;1.65;;
42246;SDS011;27913;42.722;23.268;2023-03-01T06:15:12;4.53;;;1.75;;
42246;SDS011;27913;42.722;23.268;2023-03-01T06:17:40;6.50;;;2.42;;
42246;SDS011;27913;42.722;23.268;2023-03-01T06:20:08;8.05;;;2.40;;
42246;SDS011;27913;42.722;23.268;2023-03-01T06:22:39;6.00;;;2.22;;
42246;SDS011;27913;42.722;23.268;2023-03-01T06:25:05;5.00;;;2.00;;
42246;SDS011;27913;42.722;23.268;2023-03-01T06:27:31;4.00;;;1.55;;
42246;SDS011;27913;42.722;23.268;2023-03-01T06:29:57;6.43;;;2.58;;
42246;SDS011;27913;42.722;23.268;2023-03-01T06:32:22;7.05;;;2.60;;
42246;SDS011;27913;42.722;23.268;2023-03-01T06:34:48;5.15;;;1.98;;
42246;SDS011;27913;42.722;23.268;2023-03-01T06:37:14;5.72;;;2.03;;
42246;SDS011;27913;42.722;23.268;2023-03-01T06:39:39;5.22;;;1.95;;
42246;SDS011;27913;42.722;23.268;2023-03-01T06:42:05;7.50;;;2.47;;
42246;SDS011;27913;42.722;23.268;2023-03-01T06:44:32;7.38;;;2.70;;
42246;SDS011;27913;42.722;23.268;2023-03-01T06:46:57;4.10;;;1.80;;
42246;SDS011;27913;42.722;23.268;2023-03-01T06:49:23;4.95;;;1.60;;
42246;SDS011;27913;42.722;23.268;2023-03-01T06:51:48;7.25;;;2.38;;
42246;SDS011;27913;42.722;23.268;2023-03-01T06:54:14;4.57;;;1.88;;
42246;SDS011;27913;42.722;23.268;2023-03-01T06:56:40;4.38;;;1.90;;
42246;SDS011;27913;42.722;23.268;2023-03-01T06:59:05;5.55;;;1.92;;
42246;SDS011;27913;42.722;23.268;2023-03-01T07:01:31;6.07;;;2.20;;
42246;SDS011;27913;42.722;23.268;2023-03-01T07:03:56;5.55;;;2.20;;
42246;SDS011;27913;42.722;23.268;2023-03-01T07:06:22;4.07;;;1.52;;
42246;SDS011;27913;42.722;23.268;2023-03-01T07:08:48;5.20;;;2.05;;
42246;SDS011;27913;42.722;23.268;2023-03-01T07:11:14;4.75;;;1.58;;
42246;SDS011;27913;42.722;23.268;2023-03-01T07:13:39;3.60;;;1.40;;
42246;SDS011;27913;42.722;23.268;2023-03-01T07:16:06;8.82;;;1.92;;
42246;SDS011;27913;42.722;23.268;2023-03-01T07:18:32;3.15;;;1.35;;
42246;SDS011;27913;42.722;23.268;2023-03-01T07:20:58;7.32;;;2.80;;
42246;SDS011;27913;42.722;23.268;2023-03-01T07:23:23;3.70;;;1.70;;
42246;SDS011;27913;42.722;23.268;2023-03-01T07:25:52;4.50;;;1.73;;
42246;SDS011;27913;42.722;23.268;2023-03-01T07:28:19;2.90;;;1.27;;
42246;SDS011;27913;42.722;23.268;2023-03-01T07:30:45;6.07;;;1.70;;
42246;SDS011;27913;42.722;23.268;2023-03-01T07:33:10;4.47;;;1.83;;
42246;SDS011;27913;42.722;23.268;2023-03-01T07:35:36;6.40;;;2.15;;
42246;SDS011;27913;42.722;23.268;2023-03-01T07:38:01;6.03;;;2.72;;
42246;SDS011;27913;42.722;23.268;2023-03-01T07:40:26;2.35;;;1.00;;
42246;SDS011;27913;42.722;23.268;2023-03-01T07:42:56;3.22;;;1.17;;
42246;SDS011;27913;42.722;23.268;2023-03-01T07:45:22;4.57;;;1.25;;
42246;SDS011;27913;42.722;23.268;2023-03-01T07:47:49;4.68;;;1.90;;
42246;SDS011;27913;42.722;23.268;2023-03-01T07:50:16;3.97;;;1.83;;
42246;SDS011;27913;42.722;23.268;2023-03-01T07:52:41;3.58;;;1.35;;
42246;SDS011;27913;42.722;23.268;2023-03-01T07:55:07;4.78;;;1.55;;
42246;SDS011;27913;42.722;23.268;2023-03-01T07:57:33;6.15;;;2.00;;
42246;SDS011;27913;42.722;23.268;2023-03-01T07:59:58;12.52;;;3.65;;
42246;SDS011;27913;42.722;23.268;2023-03-01T08:02:24;16.40;;;4.32;;
42246;SDS011;27913;42.722;23.268;2023-03-01T08:04:49;5.63;;;1.83;;
42246;SDS011;27913;42.722;23.268;2023-03-01T08:07:15;3.72;;;1.27;;
42246;SDS011;27913;42.722;23.268;2023-03-01T08:09:40;4.90;;;1.67;;
42246;SDS011;27913;42.722;23.268;2023-03-01T08:12:06;6.38;;;2.17;;
42246;SDS011;27913;42.722;23.268;2023-03-01T08:14:32;2.95;;;1.00;;
42246;SDS011;27913;42.722;23.268;2023-03-01T08:16:58;3.63;;;1.00;;
42246;SDS011;27913;42.722;23.268;2023-03-01T08:19:23;3.10;;;1.08;;
42246;SDS011;27913;42.722;23.268;2023-03-01T08:21:49;3.28;;;1.23;;
42246;SDS011;27913;42.722;23.268;2023-03-01T08:24:15;4.30;;;1.25;;
42246;SDS011;27913;42.722;23.268;2023-03-01T08:26:40;6.78;;;1.48;;
42246;SDS011;27913;42.722;23.268;2023-03-01T08:29:06;2.67;;;0.98;;
42246;SDS011;27913;42.722;23.268;2023-03-01T08:31:36;3.72;;;1.17;;
42246;SDS011;27913;42.722;23.268;2023-03-01T08:34:04;6.32;;;1.52;;
42246;SDS011;27913;42.722;23.268;2023-03-01T08:36:36;4.93;;;1.75;;
42246;SDS011;27913;42.722;23.268;2023-03-01T08:39:13;5.25;;;1.67;;
42246;SDS011;27913;42.722;23.268;2023-03-01T08:41:40;2.60;;;1.10;;
42246;SDS011;27913;42.722;23.268;2023-03-01T08:44:06;3.95;;;1.50;;
42246;SDS011;27913;42.722;23.268;2023-03-01T08:46:33;5.90;;;2.50;;
42246;SDS011;27913;42.722;23.268;2023-03-01T08:49:07;6.07;;;2.17;;
42246;SDS011;27913;42.722;23.268;2023-03-01T08:51:34;6.05;;;1.85;;
42246;SDS011;27913;42.722;23.268;2023-03-01T08:54:05;3.60;;;1.65;;
42246;SDS011;27913;42.722;23.268;2023-03-01T08:56:32;10.52;;;4.25;;
42246;SDS011;27913;42.722;23.268;2023-03-01T08:58:58;8.23;;;3.38;;
42246;SDS011;27913;42.722;23.268;2023-03-01T09:01:24;12.38;;;4.95;;
42246;SDS011;27913;42.722;23.268;2023-03-01T09:03:49;7.35;;;2.95;;
42246;SDS011;27913;42.722;23.268;2023-03-01T09:06:15;5.00;;;1.73;;
42246;SDS011;27913;42.722;23.268;2023-03-01T09:08:42;4.28;;;1.75;;
42246;SDS011;27913;42.722;23.268;2023-03-01T09:11:10;4.95;;;1.98;;
42246;SDS011;27913;42.722;23.268;2023-03-01T09:13:37;8.18;;;2.42;;
42246;SDS011;27913;42.722;23.268;2023-03-01T09:16:04;8.70;;;3.70;;
42246;SDS011;27913;42.722;23.268;2023-03-01T09:18:31;6.65;;;2.67;;
42246;SDS011;27913;42.722;23.268;2023-03-01T09:21:30;5.10;;;1.60;;
42246;SDS011;27913;42.722;23.268;2023-03-01T09:23:49;3.97;;;1.92;;
42246;SDS011;27913;42.722;23.268;2023-03-01T09:26:16;4.97;;;1.73;;
42246;SDS011;27913;42.722;23.268;2023-03-01T09:28:44;5.18;;;1.20;;
42246;SDS011;27913;42.722;23.268;2023-03-01T09:31:11;2.50;;;1.30;;
42246;SDS011;27913;42.722;23.268;2023-03-01T09:33:38;3.05;;;1.25;;
42246;SDS011;27913;42.722;23.268;2023-03-01T09:36:05;3.15;;;1.30;;
42246;SDS011;27913;42.722;23.268;2023-03-01T09:38:33;4.25;;;1.77;;
42246;SDS011;27913;42.722;23.268;2023-03-01T09:40:59;4.07;;;1.52;;
42246;SDS011;27913;42.722;23.268;2023-03-01T09:46:06;2.75;;;1.13;;
42246;SDS011;27913;42.722;23.268;2023-03-01T09:48:55;6.05;;;1.50;;
42246;SDS011;27913;42.722;23.268;2023-03-01T09:54:00;2.00;;;0.95;;
42246;SDS011;27913;42.722;23.268;2023-03-01T09:56:37;3.20;;;1.45;;
42246;SDS011;27913;42.722;23.268;2023-03-01T10:09:43;3.97;;;1.20;;
42246;SDS011;27913;42.722;23.268;2023-03-01T10:12:21;3.67;;;1.65;;
42246;SDS011;27913;42.722;23.268;2023-03-01T10:15:02;2.65;;;0.90;;
42246;SDS011;27913;42.722;23.268;2023-03-01T10:23:16;10.43;;;3.03;;
42246;SDS011;27913;42.722;23.268;2023-03-01T10:28:58;5.75;;;2.38;;
42246;SDS011;27913;42.722;23.268;2023-03-01T10:31:38;13.63;;;4.65;;
42246;SDS011;27913;42.722;23.268;2023-03-01T10:34:30;5.93;;;2.33;;
42246;SDS011;27913;42.722;23.268;2023-03-01T10:36:56;5.25;;;1.80;;
42246;SDS011;27913;42.722;23.268;2023-03-01T10:39:26;4.63;;;1.30;;
42246;SDS011;27913;42.722;23.268;2023-03-01T10:42:02;2.45;;;0.90;;
42246;SDS011;27913;42.722;23.268;2023-03-01T10:44:39;6.75;;;1.30;;
42246;SDS011;27913;42.722;23.268;2023-03-01T10:47:13;6.22;;;1.63;;
42246;SDS011;27913;42.722;23.268;2023-03-01T10:49:39;4.15;;;1.85;;
42246;SDS011;27913;42.722;23.268;2023-03-01T10:52:20;6.82;;;1.80;;
42246;SDS011;27913;42.722;23.268;2023-03-01T10:55:33;2.35;;;0.95;;
42246;SDS011;27913;42.722;23.268;2023-03-01T10:57:49;6.82;;;2.42;;
42246;SDS011;27913;42.722;23.268;2023-03-01T11:02:46;2.25;;;1.00;;
42246;SDS011;27913;42.722;23.268;2023-03-01T11:05:33;2.15;;;0.95;;
42246;SDS011;27913;42.722;23.268;2023-03-01T11:07:59;3.45;;;0.68;;
42246;SDS011;27913;42.722;23.268;2023-03-01T11:10:30;1.98;;;0.70;;
42246;SDS011;27913;42.722;23.268;2023-03-01T11:15:38;3.67;;;0.93;;
42246;SDS011;27913;42.722;23.268;2023-03-01T11:18:03;4.00;;;1.27;;
42246;SDS011;27913;42.722;23.268;2023-03-01T11:20:29;38.78;;;8.00;;
42246;SDS011;27913;42.722;23.268;2023-03-01T11:23:01;37.47;;;7.53;;
42246;SDS011;27913;42.722;23.268;2023-03-01T11:25:32;18.67;;;5.60;;
42246;SDS011;27913;42.722;23.268;2023-03-01T11:28:01;7.70;;;2.83;;
42246;SDS011;27913;42.722;23.268;2023-03-01T11:30:31;3.92;;;1.60;;
42246;SDS011;27913;42.722;23.268;2023-03-01T11:36:07;2.70;;;0.85;;
42246;SDS011;27913;42.722;23.268;2023-03-01T11:38:32;2.70;;;0.70;;
42246;SDS011;27913;42.722;23.268;2023-03-01T11:44:14;2.42;;;0.80;;
42246;SDS011;27913;42.722;23.268;2023-03-01T11:52:57;2.00;;;0.73;;
42246;SDS011;27913;42.722;23.268;2023-03-01T11:55:36;4.13;;;1.20;;
42246;SDS011;27913;42.722;23.268;2023-03-01T12:06:31;6.40;;;1.63;;
42246;SDS011;27913;42.722;23.268;2023-03-01T12:14:48;4.18;;;1.50;;
42246;SDS011;27913;42.722;23.268;2023-03-01T12:17:55;1.92;;;0.90;;
42246;SDS011;27913;42.722;23.268;2023-03-01T12:43:08;5.45;;;2.25;;
42246;SDS011;27913;42.722;23.268;2023-03-01T12:49:16;7.72;;;2.67;;
42246;SDS011;27913;42.722;23.268;2023-03-01T12:51:16;16.10;;;4.35;;
42246;SDS011;27913;42.722;23.268;2023-03-01T12:53:49;4.57;;;1.20;;
42246;SDS011;27913;42.722;23.268;2023-03-01T12:56:19;6.15;;;1.48;;
42246;SDS011;27913;42.722;23.268;2023-03-01T13:04:18;5.45;;;1.48;;
42246;SDS011;27913;42.722;23.268;2023-03-01T13:11:59;3.83;;;1.30;;
42246;SDS011;27913;42.722;23.268;2023-03-01T13:16:51;5.18;;;1.67;;
42246;SDS011;27913;42.722;23.268;2023-03-01T13:21:47;3.28;;;1.38;;
42246;SDS011;27913;42.722;23.268;2023-03-01T13:24:28;4.28;;;1.75;;
42246;SDS011;27913;42.722;23.268;2023-03-01T13:32:24;8.32;;;1.38;;
42246;SDS011;27913;42.722;23.268;2023-03-01T13:35:03;3.42;;;1.50;;
42246;SDS011;27913;42.722;23.268;2023-03-01T13:37:45;3.17;;;1.27;;
42246;SDS011;27913;42.722;23.268;2023-03-01T13:42:46;5.75;;;1.50;;
42246;SDS011;27913;42.722;23.268;2023-03-01T13:47:45;13.77;;;5.15;;
42246;SDS011;27913;42.722;23.268;2023-03-01T13:50:21;10.13;;;3.50;;
42246;SDS011;27913;42.722;23.268;2023-03-01T13:53:03;8.85;;;3.75;;
42246;SDS011;27913;42.722;23.268;2023-03-01T13:58:18;20.63;;;5.75;;
42246;SDS011;27913;42.722;23.268;2023-03-01T14:00:44;17.63;;;6.63;;
42246;SDS011;27913;42.722;23.268;2023-03-01T14:05:39;14.68;;;5.75;;
42246;SDS011;27913;42.722;23.268;2023-03-01T14:08:17;14.73;;;5.93;;
42246;SDS011;27913;42.722;23.268;2023-03-01T14:10:52;5.43;;;2.00;;
42246;SDS011;27913;42.722;23.268;2023-03-01T14:13:37;5.45;;;1.70;;
42246;SDS011;27913;42.722;23.268;2023-03-01T14:19:26;11.97;;;4.67;;
42246;SDS011;27913;42.722;23.268;2023-03-01T14:22:01;12.20;;;4.38;;
42246;SDS011;27913;42.722;23.268;2023-03-01T14:24:48;7.50;;;2.67;;
42246;SDS011;27913;42.722;23.268;2023-03-01T14:27:16;6.47;;;2.55;;
42246;SDS011;27913;42.722;23.268;2023-03-01T14:29:43;4.85;;;1.65;;
42246;SDS011;27913;42.722;23.268;2023-03-01T14:32:19;5.30;;;2.03;;
42246;SDS011;27913;42.722;23.268;2023-03-01T14:34:45;7.85;;;2.88;;
42246;SDS011;27913;42.722;23.268;2023-03-01T14:37:24;5.60;;;2.03;;
42246;SDS011;27913;42.722;23.268;2023-03-01T14:39:50;7.68;;;2.47;;
42246;SDS011;27913;42.722;23.268;2023-03-01T14:42:17;4.00;;;1.25;;
42246;SDS011;27913;42.722;23.268;2023-03-01T14:44:45;6.18;;;2.28;;
42246;SDS011;27913;42.722;23.268;2023-03-01T14:47:19;6.20;;;2.30;;
42246;SDS011;27913;42.722;23.268;2023-03-01T14:49:59;8.00;;;2.08;;
42246;SDS011;27913;42.722;23.268;2023-03-01T14:52:36;8.95;;;2.63;;
42246;SDS011;27913;42.722;23.268;2023-03-01T14:55:05;6.30;;;2.20;;
42246;SDS011;27913;42.722;23.268;2023-03-01T14:57:42;5.82;;;2.00;;
42246;SDS011;27913;42.722;23.268;2023-03-01T15:00:10;7.88;;;1.90;;
42246;SDS011;27913;42.722;23.268;2023-03-01T15:02:44;5.05;;;1.90;;
42246;SDS011;27913;42.722;23.268;2023-03-01T15:05:13;8.68;;;1.83;;
42246;SDS011;27913;42.722;23.268;2023-03-01T15:07:40;5.45;;;1.70;;
42246;SDS011;27913;42.722;23.268;2023-03-01T15:10:27;5.60;;;2.03;;
42246;SDS011;27913;42.722;23.268;2023-03-01T15:12:55;4.25;;;1.50;;
42246;SDS011;27913;42.722;23.268;2023-03-01T15:18:01;4.28;;;1.90;;
42246;SDS011;27913;42.722;23.268;2023-03-01T15:20:29;5.30;;;1.70;;
42246;SDS011;27913;42.722;23.268;2023-03-01T15:25:26;6.53;;;1.27;;
42246;SDS011;27913;42.722;23.268;2023-03-01T15:27:54;5.53;;;2.22;;
42246;SDS011;27913;42.722;23.268;2023-03-01T15:30:23;9.27;;;3.13;;
42246;SDS011;27913;42.722;23.268;2023-03-01T15:38:57;14.45;;;5.10;;
42246;SDS011;27913;42.722;23.268;2023-03-01T15:41:38;8.30;;;2.25;;
42246;SDS011;27913;42.722;23.268;2023-03-01T15:44:14;3.00;;;1.30;;
42246;SDS011;27913;42.722;23.268;2023-03-01T15:46:44;11.75;;;4.10;;
42246;SDS011;27913;42.722;23.268;2023-03-01T15:49:25;16.42;;;7.68;;
42246;SDS011;27913;42.722;23.268;2023-03-01T15:52:01;7.72;;;2.92;;
42246;SDS011;27913;42.722;23.268;2023-03-01T15:54:30;11.05;;;3.22;;
42246;SDS011;27913;42.722;23.268;2023-03-01T15:56:56;6.82;;;2.78;;
42246;SDS011;27913;42.722;23.268;2023-03-01T15:59:24;11.48;;;3.60;;
42246;SDS011;27913;42.722;23.268;2023-03-01T16:01:49;9.02;;;2.88;;
42246;SDS011;27913;42.722;23.268;2023-03-01T16:04:16;9.95;;;2.42;;
42246;SDS011;27913;42.722;23.268;2023-03-01T16:06:47;11.27;;;3.78;;
42246;SDS011;27913;42.722;23.268;2023-03-01T16:09:20;8.35;;;2.28;;
42246;SDS011;27913;42.722;23.268;2023-03-01T16:11:49;6.95;;;2.30;;
42246;SDS011;27913;42.722;23.268;2023-03-01T16:14:16;15.13;;;4.95;;
42246;SDS011;27913;42.722;23.268;2023-03-01T16:16:41;8.98;;;2.60;;
42246;SDS011;27913;42.722;23.268;2023-03-01T16:19:07;10.73;;;2.80;;
42246;SDS011;27913;42.722;23.268;2023-03-01T16:21:33;18.08;;;8.32;;
42246;SDS011;27913;42.722;23.268;2023-03-01T16:23:58;16.73;;;5.97;;
42246;SDS011;27913;42.722;23.268;2023-03-01T16:26:24;15.10;;;5.55;;
42246;SDS011;27913;42.722;23.268;2023-03-01T16:28:50;19.90;;;6.43;;
42246;SDS011;27913;42.722;23.268;2023-03-01T16:31:20;19.58;;;6.97;;
42246;SDS011;27913;42.722;23.268;2023-03-01T16:33:47;14.68;;;6.22;;
42246;SDS011;27913;42.722;23.268;2023-03-01T16:36:16;10.93;;;3.75;;
42246;SDS011;27913;42.722;23.268;2023-03-01T16:38:43;8.90;;;3.95;;
42246;SDS011;27913;42.722;23.268;2023-03-01T16:41:16;15.15;;;5.45;;
42246;SDS011;27913;42.722;23.268;2023-03-01T16:43:45;9.30;;;3.13;;
42246;SDS011;27913;42.722;23.268;2023-03-01T16:46:12;8.25;;;2.65;;
42246;SDS011;27913;42.722;23.268;2023-03-01T16:48:48;9.30;;;2.65;;
42246;SDS011;27913;42.722;23.268;2023-03-01T16:51:14;6.47;;;2.30;;
42246;SDS011;27913;42.722;23.268;2023-03-01T16:53:40;7.07;;;2.80;;
42246;SDS011;27913;42.722;23.268;2023-03-01T16:56:07;7.72;;;3.17;;
42246;SDS011;27913;42.722;23.268;2023-03-01T16:58:34;10.05;;;3.28;;
42246;SDS011;27913;42.722;23.268;2023-03-01T17:01:07;9.95;;;3.72;;
42246;SDS011;27913;42.722;23.268;2023-03-01T17:03:35;7.25;;;2.85;;
42246;SDS011;27913;42.722;23.268;2023-03-01T17:06:03;5.88;;;2.45;;